createdAt,value
2018-04-28T00:02:18.458Z,15.70
2018-04-28T00:04:46.195Z,11.60
2018-04-28T00:07:13.788Z,15.10
2018-04-28T00:09:41.328Z,18.57
2018-04-28T00:12:08.913Z,16.30
2018-04-28T00:14:36.467Z,16.37
2018-04-28T00:17:06.852Z,19.90
2018-04-28T00:19:39.195Z,20.77
2018-04-28T00:22:21.686Z,19.17
2018-04-28T00:27:53.177Z,20.27
2018-04-28T00:30:25.453Z,19.90
2018-04-28T00:32:53.015Z,18.17
2018-04-28T00:35:26.298Z,18.60
2018-04-28T00:37:56.736Z,17.10
2018-04-28T00:40:24.301Z,22.77
2018-04-28T00:42:53.650Z,18.23
2018-04-28T00:45:25.893Z,18.80
2018-04-28T00:47:53.465Z,20.07
2018-04-28T00:50:36.109Z,20.70
2018-04-28T00:53:03.666Z,23.63
2018-04-28T00:55:39.873Z,22.60
2018-04-28T00:58:16.781Z,20.93
2018-04-28T01:00:50.092Z,19.53
2018-04-28T01:03:24.350Z,23.67
2018-04-28T01:05:51.991Z,17.07
2018-04-28T01:08:26.408Z,19.60
2018-04-28T01:10:54.718Z,17.70
2018-04-28T01:13:22.272Z,18.53
2018-04-28T01:15:49.812Z,14.30
2018-04-28T01:18:25.138Z,23.53
2018-04-28T01:21:07.761Z,17.23
2018-04-28T01:23:44.224Z,14.33
2018-04-28T01:26:17.756Z,16.87
2018-04-28T01:28:48.063Z,19.33
2018-04-28T01:31:16.548Z,16.60
2018-04-28T01:34:10.948Z,18.03
2018-04-28T01:36:59.321Z,19.40
2018-04-28T01:39:41.800Z,18.43
2018-04-28T01:45:20.371Z,19.97
2018-04-28T01:48:25.095Z,21.17
2018-04-28T01:51:07.516Z,18.50
2018-04-28T01:53:38.525Z,19.90
2018-04-28T01:56:06.088Z,18.57
2018-04-28T01:58:38.303Z,20.53
2018-04-28T02:14:59.535Z,22.33
2018-04-28T02:17:30.698Z,23.97
2018-04-28T02:20:01.157Z,23.90
2018-04-28T02:22:40.189Z,23.53
2018-04-28T02:28:20.118Z,22.73
2018-04-28T02:31:04.436Z,23.93
2018-04-28T02:33:34.432Z,24.27
2018-04-28T02:36:12.264Z,22.63
2018-04-28T02:38:42.428Z,22.70
2018-04-28T02:41:20.648Z,22.20
2018-04-28T02:43:52.861Z,29.67
2018-04-28T02:46:28.319Z,20.43
2018-04-28T02:48:58.741Z,24.73
2018-04-28T02:51:33.270Z,19.97
2018-04-28T02:54:07.673Z,29.87
2018-04-28T02:56:52.385Z,19.93
2018-04-28T03:02:21.210Z,18.27
2018-04-28T03:04:52.636Z,22.90
2018-04-28T03:07:36.468Z,22.97
2018-04-28T03:13:00.837Z,19.07
2018-04-28T03:15:28.385Z,20.83
2018-04-28T03:17:56.767Z,23.03
2018-04-28T03:20:24.320Z,23.80
2018-04-28T03:25:47.548Z,27.40
2018-04-28T03:28:35.509Z,19.60
2018-04-28T03:31:04.962Z,18.00
2018-04-28T03:33:44.885Z,17.77
2018-04-28T03:36:27.452Z,23.80
2018-04-28T03:38:56.472Z,25.47
2018-04-28T03:41:25.360Z,25.67
2018-04-28T03:44:01.623Z,26.53
2018-04-28T03:49:29.668Z,26.13
2018-04-28T03:52:13.859Z,26.23
2018-04-28T03:54:42.323Z,28.00
2018-04-28T04:00:23.331Z,22.10
2018-04-28T04:03:02.558Z,23.20
2018-04-28T04:09:01.592Z,25.80
2018-04-28T04:15:04.584Z,24.13
2018-04-28T04:17:57.772Z,24.03
2018-04-28T04:20:34.111Z,23.60
2018-04-28T04:23:10.259Z,27.27
2018-04-28T04:25:49.424Z,29.17
2018-04-28T04:28:19.727Z,26.93
2018-04-28T04:30:58.318Z,30.97
2018-04-28T04:33:42.596Z,25.83
2018-04-28T04:39:34.103Z,20.93
2018-04-28T04:42:13.661Z,23.00
2018-04-28T04:44:55.528Z,26.97
2018-04-28T04:47:39.605Z,26.20
2018-04-28T04:50:11.840Z,23.90
2018-04-28T04:53:01.723Z,19.53
2018-04-28T04:58:41.250Z,21.43
2018-04-28T05:01:20.420Z,22.10
2018-04-28T05:03:55.990Z,19.87
2018-04-28T05:06:37.045Z,21.07
2018-04-28T05:23:12.024Z,13.63
2018-04-28T05:28:47.864Z,21.40
2018-04-28T05:31:26.712Z,20.77
2018-04-28T05:34:00.447Z,19.93
2018-04-28T05:39:53.868Z,12.37
2018-04-28T05:45:34.816Z,13.73
2018-04-28T05:48:24.579Z,13.03
2018-04-28T05:51:04.045Z,13.80
2018-04-28T05:53:43.718Z,14.83
2018-04-28T05:59:37.509Z,16.70
2018-04-28T06:05:40.524Z,17.03
2018-04-28T06:08:29.710Z,17.40
2018-04-28T06:11:22.117Z,22.23
2018-04-28T06:14:03.623Z,18.90
2018-04-28T06:16:53.869Z,22.47
2018-04-28T06:19:28.421Z,15.13
2018-04-28T06:21:56.316Z,18.23
2018-04-28T06:24:23.947Z,18.47
2018-04-28T06:26:51.554Z,25.40
2018-04-28T06:29:19.269Z,19.53
2018-04-28T06:31:46.823Z,15.40
2018-04-28T06:34:14.409Z,17.37
2018-04-28T06:36:41.988Z,19.20
2018-04-28T06:39:10.525Z,17.50
2018-04-28T06:41:38.187Z,17.87
2018-04-28T06:44:05.769Z,13.63
2018-04-28T06:46:33.321Z,21.23
2018-04-28T06:49:00.882Z,35.23
2018-04-28T06:51:28.696Z,22.00
2018-04-28T06:53:57.013Z,21.67
2018-04-28T06:56:24.571Z,20.43
2018-04-28T06:58:52.352Z,18.93
2018-04-28T07:01:20.011Z,16.50
2018-04-28T07:03:47.721Z,15.63
2018-04-28T07:06:15.306Z,13.43
2018-04-28T07:08:42.851Z,9.10
2018-04-28T07:11:10.784Z,12.43
2018-04-28T07:13:39.141Z,14.50
2018-04-28T07:16:06.688Z,13.27
2018-04-28T07:18:34.360Z,15.03
2018-04-28T07:21:02.868Z,10.67
2018-04-28T07:23:31.274Z,10.17
2018-04-28T07:25:58.823Z,12.53
2018-04-28T07:28:26.657Z,18.23
2018-04-28T07:30:54.271Z,11.10
2018-04-28T07:33:21.821Z,9.13
2018-04-28T07:35:49.795Z,9.00
2018-04-28T07:38:17.347Z,11.23
2018-04-28T07:40:45.141Z,8.93
2018-04-28T07:43:12.761Z,5.63
2018-04-28T07:45:40.311Z,8.33
2018-04-28T07:48:08.185Z,9.60
2018-04-28T07:50:36.381Z,8.87
2018-04-28T07:53:03.988Z,6.97
2018-04-28T07:55:31.540Z,3.90
2018-04-28T07:57:59.250Z,5.57
2018-04-28T08:00:26.921Z,5.23
2018-04-28T08:02:54.728Z,7.23
2018-04-28T08:05:22.564Z,7.03
2018-04-28T08:07:50.181Z,7.83
2018-04-28T08:10:17.757Z,4.23
2018-04-28T08:12:45.809Z,4.60
2018-04-28T08:15:13.370Z,6.30
2018-04-28T08:17:41.260Z,3.70
2018-04-28T08:20:09.018Z,6.17
2018-04-28T08:22:36.993Z,3.70
2018-04-28T08:25:04.856Z,4.00
2018-04-28T08:27:32.990Z,3.87
2018-04-28T08:30:01.385Z,6.00
2018-04-28T08:32:28.934Z,7.03
2018-04-28T08:34:57.453Z,7.17
2018-04-28T08:37:25.122Z,6.37
2018-04-28T08:39:52.603Z,7.03
2018-04-28T08:42:20.710Z,5.63
2018-04-28T08:44:48.409Z,5.53
2018-04-28T08:47:16.143Z,5.43
2018-04-28T08:49:43.977Z,7.10
2018-04-28T08:52:12.873Z,5.90
2018-04-28T08:54:41.272Z,5.20
2018-04-28T08:57:09.244Z,7.00
2018-04-28T08:59:48.703Z,4.63
2018-04-28T09:02:16.775Z,4.93
2018-04-28T09:04:44.610Z,4.47
2018-04-28T09:07:24.193Z,8.63
2018-04-28T09:09:51.807Z,5.70
2018-04-28T09:12:19.799Z,6.03
2018-04-28T09:14:47.656Z,5.40
2018-04-28T09:17:15.136Z,4.70
2018-04-28T09:19:43.090Z,3.77
2018-04-28T09:22:11.089Z,6.30
2018-04-28T09:24:38.908Z,4.10
2018-04-28T09:27:06.827Z,4.27
2018-04-28T09:29:36.464Z,4.05
2018-04-28T09:32:04.961Z,3.72
2018-04-28T09:34:32.606Z,3.45
2018-04-28T09:37:00.277Z,6.28
2018-04-28T09:39:28.046Z,3.97
2018-04-28T09:41:55.708Z,4.15
2018-04-28T09:44:23.300Z,5.47
2018-04-28T09:46:51.119Z,4.20
2018-04-28T09:49:18.673Z,7.40
2018-04-28T09:51:46.475Z,3.35
2018-04-28T09:54:14.067Z,2.97
2018-04-28T09:56:41.840Z,3.60
2018-04-28T09:59:09.811Z,5.20
2018-04-28T10:01:43.132Z,2.80
2018-04-28T10:04:16.770Z,5.45
2018-04-28T10:06:44.501Z,4.43
2018-04-28T10:09:12.241Z,3.80
2018-04-28T10:11:40.004Z,3.83
2018-04-28T10:14:08.372Z,5.20
2018-04-28T10:16:35.929Z,3.25
2018-04-28T10:19:04.416Z,2.03
2018-04-28T10:21:32.741Z,3.95
2018-04-28T10:24:00.498Z,3.92
2018-04-28T10:26:28.532Z,2.10
2018-04-28T10:28:56.470Z,3.17
2018-04-28T10:31:24.013Z,6.43
2018-04-28T10:33:51.832Z,4.20
2018-04-28T10:36:19.355Z,2.08
2018-04-28T10:38:47.174Z,2.70
2018-04-28T10:41:15.170Z,3.37
2018-04-28T10:43:42.750Z,3.03
2018-04-28T10:46:10.333Z,1.73
2018-04-28T10:48:38.750Z,3.62
2018-04-28T10:51:06.383Z,1.90
2018-04-28T10:53:34.322Z,5.85
2018-04-28T10:56:02.195Z,7.12
2018-04-28T10:58:30.824Z,9.70
2018-04-28T11:00:58.506Z,4.82
2018-04-28T11:03:26.096Z,3.40
2018-04-28T11:05:53.820Z,4.50
2018-04-28T11:08:21.420Z,4.40
2018-04-28T11:10:48.995Z,3.67
2018-04-28T11:13:16.590Z,4.35
2018-04-28T11:15:44.275Z,3.83
2018-04-28T11:18:11.948Z,2.80
2018-04-28T11:20:39.501Z,4.68
2018-04-28T11:23:07.277Z,4.32
2018-04-28T11:25:35.981Z,3.25
2018-04-28T11:28:03.455Z,5.95
2018-04-28T11:30:31.436Z,5.57
2018-04-28T11:32:59.242Z,4.70
2018-04-28T11:35:26.992Z,3.05
2018-04-28T11:37:54.540Z,9.15
2018-04-28T11:40:22.270Z,4.80
2018-04-28T11:42:49.975Z,3.65
2018-04-28T11:45:17.521Z,5.53
2018-04-28T11:47:45.291Z,5.80
2018-04-28T11:50:12.925Z,5.20
2018-04-28T11:52:40.657Z,4.85
2018-04-28T11:55:09.003Z,5.68
2018-04-28T11:57:36.825Z,5.18
2018-04-28T12:00:04.435Z,5.22
2018-04-28T12:02:32.071Z,6.68
2018-04-28T12:04:59.945Z,4.15
2018-04-28T12:07:27.497Z,3.10
2018-04-28T12:09:55.411Z,39.65
2018-04-28T12:12:22.974Z,5.87
2018-04-28T12:14:50.788Z,3.78
2018-04-28T12:17:18.936Z,8.85
2018-04-28T12:19:46.487Z,4.15
2018-04-28T12:22:14.057Z,8.43
2018-04-28T12:24:42.041Z,4.10
2018-04-28T12:27:09.596Z,4.37
2018-04-28T12:29:37.233Z,4.05
2018-04-28T12:32:06.189Z,8.52
2018-04-28T12:34:33.760Z,5.85
2018-04-28T12:37:02.445Z,4.78
2018-04-28T12:39:30.328Z,6.07
2018-04-28T12:41:57.878Z,4.22
2018-04-28T12:44:25.902Z,8.23
2018-04-28T12:46:53.499Z,5.47
2018-04-28T12:49:21.813Z,4.30
2018-04-28T12:51:49.375Z,3.58
2018-04-28T12:54:17.059Z,4.60
2018-04-28T12:56:44.863Z,6.28
2018-04-28T12:59:12.555Z,4.82
2018-04-28T13:01:40.500Z,7.90
2018-04-28T13:04:08.721Z,6.60
2018-04-28T13:06:36.532Z,4.37
2018-04-28T13:09:04.474Z,5.53
2018-04-28T13:11:32.803Z,8.32
2018-04-28T13:14:00.585Z,4.95
2018-04-28T13:16:28.481Z,8.75
2018-04-28T13:18:56.039Z,6.55
2018-04-28T13:21:23.751Z,9.05
2018-04-28T13:23:51.449Z,5.37
2018-04-28T13:26:18.992Z,5.85
2018-04-28T13:28:46.557Z,5.32
2018-04-28T13:31:14.420Z,11.00
2018-04-28T13:33:42.119Z,5.50
2018-04-28T13:36:09.753Z,3.03
2018-04-28T13:38:37.547Z,5.70
2018-04-28T13:41:05.115Z,6.72
2018-04-28T13:43:32.808Z,10.70
2018-04-28T13:46:00.631Z,9.35
2018-04-28T13:48:29.155Z,17.20
2018-04-28T13:50:57.120Z,7.68
2018-04-28T13:53:24.697Z,6.25
2018-04-28T13:55:53.098Z,12.07
2018-04-28T13:58:20.936Z,27.37
2018-04-28T14:00:48.701Z,6.95
2018-04-28T14:03:16.477Z,4.28
2018-04-28T14:05:44.329Z,3.58
2018-04-28T14:08:11.924Z,3.67
2018-04-28T14:10:39.505Z,3.28
2018-04-28T14:13:07.294Z,4.47
2018-04-28T14:15:35.193Z,6.32
2018-04-28T14:18:02.751Z,2.95
2018-04-28T14:20:30.739Z,4.15
2018-04-28T14:22:59.610Z,5.03
2018-04-28T14:25:27.176Z,5.07
2018-04-28T14:27:54.852Z,8.02
2018-04-28T14:30:22.855Z,4.10
2018-04-28T14:32:50.391Z,6.18
2018-04-28T14:35:18.560Z,8.30
2018-04-28T14:37:47.207Z,5.93
2018-04-28T14:40:14.769Z,8.30
2018-04-28T14:42:42.463Z,6.12
2018-04-28T14:45:10.241Z,9.85
2018-04-28T14:47:38.234Z,8.20
2018-04-28T14:50:05.816Z,6.43
2018-04-28T14:52:33.584Z,6.37
2018-04-28T14:55:01.161Z,5.70
2018-04-28T14:57:28.869Z,4.50
2018-04-28T14:59:56.470Z,5.62
2018-04-28T15:02:24.116Z,7.43
2018-04-28T15:04:51.972Z,8.93
2018-04-28T15:07:19.569Z,6.95
2018-04-28T15:09:48.000Z,6.20
2018-04-28T15:12:15.718Z,4.18
2018-04-28T15:14:44.095Z,5.62
2018-04-28T15:17:12.037Z,5.30
2018-04-28T15:19:39.858Z,8.05
2018-04-28T15:22:07.611Z,6.53
2018-04-28T15:24:35.161Z,6.55
2018-04-28T15:27:02.893Z,7.75
2018-04-28T15:29:30.658Z,7.47
2018-04-28T15:31:58.396Z,9.15
2018-04-28T15:34:26.046Z,8.95
2018-04-28T15:36:54.015Z,8.68
2018-04-28T15:39:21.715Z,8.18
2018-04-28T15:41:49.298Z,10.50
2018-04-28T15:44:18.002Z,7.87
2018-04-28T15:46:45.661Z,9.82
2018-04-28T15:49:13.248Z,7.57
2018-04-28T15:51:40.831Z,8.57
2018-04-28T15:54:08.379Z,6.15
2018-04-28T15:56:36.721Z,9.32
2018-04-28T15:59:04.780Z,6.72
2018-04-28T16:01:32.320Z,9.60
2018-04-28T16:03:59.877Z,24.75
2018-04-28T16:06:28.305Z,9.30
2018-04-28T16:08:55.888Z,5.93
2018-04-28T16:11:23.658Z,7.30
2018-04-28T16:13:51.276Z,10.27
2018-04-28T16:16:18.916Z,22.23
2018-04-28T16:18:46.507Z,21.63
2018-04-28T16:21:14.239Z,20.02
2018-04-28T16:23:41.859Z,28.50
2018-04-28T16:26:09.763Z,19.77
2018-04-28T16:28:37.384Z,20.73
2018-04-28T16:31:05.148Z,59.87
2018-04-28T16:33:32.701Z,41.67
2018-04-28T16:36:00.485Z,31.97
2018-04-28T16:38:28.911Z,31.43
2018-04-28T16:40:56.609Z,15.60
2018-04-28T16:43:24.260Z,21.70
2018-04-28T16:45:51.826Z,34.00
2018-04-28T16:48:19.376Z,48.77
2018-04-28T16:50:47.248Z,34.13
2018-04-28T16:53:15.193Z,28.33
2018-04-28T16:55:42.845Z,40.73
2018-04-28T16:58:10.813Z,30.07
2018-04-28T17:00:38.579Z,44.77
2018-04-28T17:03:06.379Z,52.27
2018-04-28T17:05:34.034Z,51.57
2018-04-28T17:08:01.592Z,49.70
2018-04-28T17:10:29.695Z,58.10
2018-04-28T17:12:57.470Z,42.40
2018-04-28T17:15:25.049Z,32.37
2018-04-28T17:17:53.454Z,28.03
2018-04-28T17:20:21.089Z,50.73
2018-04-28T17:22:48.656Z,49.93
2018-04-28T17:25:16.224Z,55.20
2018-04-28T17:27:43.815Z,57.23
2018-04-28T17:30:11.446Z,46.73
2018-04-28T17:32:38.962Z,50.93
2018-04-28T17:35:06.552Z,43.43
2018-04-28T17:37:34.136Z,45.83
2018-04-28T17:40:02.097Z,44.07
2018-04-28T17:42:29.692Z,41.60
2018-04-28T17:44:57.277Z,40.30
2018-04-28T17:47:24.841Z,44.10
2018-04-28T17:49:52.469Z,42.30
2018-04-28T17:52:20.091Z,43.50
2018-04-28T17:54:47.651Z,51.10
2018-04-28T17:57:15.258Z,60.27
2018-04-28T17:59:42.825Z,65.23
2018-04-28T18:02:10.399Z,67.73
2018-04-28T18:04:38.211Z,59.07
2018-04-28T18:07:06.020Z,61.93
2018-04-28T18:09:33.656Z,58.07
2018-04-28T18:12:02.305Z,53.23
2018-04-28T18:14:29.906Z,41.27
2018-04-28T18:16:57.637Z,42.90
2018-04-28T18:19:25.260Z,40.33
2018-04-28T18:21:52.906Z,36.97
2018-04-28T18:24:20.469Z,38.20
2018-04-28T18:26:48.073Z,33.90
2018-04-28T18:29:15.701Z,37.90
2018-04-28T18:31:43.264Z,43.90
2018-04-28T18:34:10.877Z,41.53
2018-04-28T18:36:39.374Z,40.90
2018-04-28T18:39:06.991Z,43.30
2018-04-28T18:41:34.871Z,36.40
2018-04-28T18:44:03.204Z,30.53
2018-04-28T18:46:30.874Z,35.47
2018-04-28T18:48:58.632Z,37.93
2018-04-28T18:51:26.288Z,46.40
2018-04-28T18:53:53.857Z,45.37
2018-04-28T18:56:21.677Z,53.53
2018-04-28T18:58:50.002Z,44.10
2018-04-28T19:01:17.553Z,50.23
2018-04-28T19:03:45.161Z,34.70
2018-04-28T19:06:12.720Z,35.83
2018-04-28T19:08:41.067Z,40.77
2018-04-28T19:11:08.756Z,34.97
2018-04-28T19:13:36.337Z,34.17
2018-04-28T19:16:03.892Z,37.57
2018-04-28T19:18:31.510Z,38.67
2018-04-28T19:20:59.112Z,51.50
2018-04-28T19:23:27.438Z,54.80
2018-04-28T19:25:55.154Z,42.13
2018-04-28T19:28:22.749Z,45.43
2018-04-28T19:30:50.311Z,38.87
2018-04-28T19:33:18.362Z,39.83
2018-04-28T19:35:46.255Z,46.57
2018-04-28T19:38:14.298Z,33.50
2018-04-28T19:40:42.018Z,36.80
2018-04-28T19:43:10.456Z,45.77
2018-04-28T19:45:38.091Z,48.97
2018-04-28T19:48:05.760Z,43.67
2018-04-28T19:50:33.836Z,47.07
2018-04-28T19:53:01.391Z,51.50
2018-04-28T19:55:28.991Z,47.07
2018-04-28T19:57:56.549Z,47.27
2018-04-28T20:00:25.628Z,52.70
2018-04-28T20:02:54.833Z,53.73
2018-04-28T20:05:22.432Z,59.93
2018-04-28T20:07:50.005Z,71.20
2018-04-28T20:10:17.793Z,70.27
2018-04-28T20:12:45.363Z,60.67
2018-04-28T20:15:13.137Z,83.67
2018-04-28T20:17:41.558Z,65.57
2018-04-28T20:20:09.376Z,68.67
2018-04-28T20:22:50.421Z,70.13
2018-04-28T20:25:22.664Z,77.57
2018-04-28T20:27:50.270Z,81.27
2018-04-28T20:30:17.865Z,83.30
2018-04-28T20:32:45.422Z,90.77
2018-04-28T20:35:13.790Z,107.83
2018-04-28T20:37:41.506Z,105.40
2018-04-28T20:40:09.093Z,100.07
2018-04-28T20:42:36.698Z,100.43
2018-04-28T20:45:04.585Z,104.90
2018-04-28T20:47:32.148Z,80.97
2018-04-28T20:49:59.810Z,79.40
2018-04-28T20:52:27.881Z,79.53
2018-04-28T20:54:55.514Z,76.20
2018-04-28T20:57:23.124Z,72.30
2018-04-28T20:59:50.908Z,53.77
2018-04-28T21:02:18.486Z,54.43
2018-04-28T21:04:46.125Z,42.70
2018-04-28T21:07:13.679Z,50.77
2018-04-28T21:09:41.247Z,43.73
2018-04-28T21:12:08.899Z,39.80
2018-04-28T21:14:36.462Z,32.47
2018-04-28T21:17:04.020Z,26.40
2018-04-28T21:19:31.641Z,21.30
2018-04-28T21:21:59.192Z,18.57
2018-04-28T21:24:27.073Z,22.63
2018-04-28T21:26:54.706Z,24.13
2018-04-28T21:29:22.261Z,20.37
2018-04-28T21:31:50.021Z,23.37
2018-04-28T21:34:17.620Z,26.33
2018-04-28T21:36:45.176Z,25.90
2018-04-28T21:39:12.856Z,25.87
2018-04-28T21:41:40.447Z,23.60
2018-04-28T21:44:08.116Z,25.13
2018-04-28T21:46:35.792Z,24.53
2018-04-28T21:49:03.497Z,28.47
2018-04-28T21:51:31.085Z,28.37
2018-04-28T21:53:59.286Z,27.63
2018-04-28T21:56:26.860Z,24.83
2018-04-28T21:58:54.469Z,33.23
2018-04-28T22:01:22.245Z,26.83
2018-04-28T22:03:50.556Z,28.50
2018-04-28T22:06:18.112Z,33.73
2018-04-28T22:08:46.029Z,28.67
2018-04-28T22:11:13.669Z,34.10
2018-04-28T22:13:42.887Z,28.10
2018-04-28T22:16:10.703Z,32.60
2018-04-28T22:18:38.271Z,27.60
2018-04-28T22:21:05.832Z,28.50
2018-04-28T22:23:33.496Z,32.30
2018-04-28T22:26:01.017Z,26.90
2018-04-28T22:28:29.161Z,29.37
2018-04-28T22:30:56.765Z,28.63
2018-04-28T22:33:24.340Z,27.00
2018-04-28T22:35:51.916Z,28.10
2018-04-28T22:38:19.676Z,25.97
2018-04-28T22:40:47.395Z,38.73
2018-04-28T22:43:15.317Z,38.70
2018-04-28T22:45:42.903Z,36.37
2018-04-28T22:48:10.475Z,40.80
2018-04-28T22:50:38.027Z,36.23
2018-04-28T22:53:05.632Z,33.17
2018-04-28T22:55:33.752Z,37.17
2018-04-28T22:58:01.509Z,36.60
2018-04-28T23:00:35.692Z,34.30
2018-04-28T23:03:03.344Z,36.30
2018-04-28T23:05:31.029Z,34.13
2018-04-28T23:07:58.676Z,36.83
2018-04-28T23:10:26.493Z,34.10
2018-04-28T23:12:54.274Z,28.50
2018-04-28T23:15:21.907Z,33.17
2018-04-28T23:17:50.344Z,34.53
2018-04-28T23:20:18.659Z,34.07
2018-04-28T23:22:47.264Z,30.13
2018-04-28T23:25:15.036Z,32.17
2018-04-28T23:27:42.831Z,34.97
2018-04-28T23:30:10.413Z,27.07
2018-04-28T23:32:38.151Z,30.40
2018-04-28T23:35:06.224Z,32.23
2018-04-28T23:37:33.822Z,33.70
2018-04-28T23:40:02.367Z,33.07
2018-04-28T23:42:31.401Z,34.57
2018-04-28T23:44:59.105Z,33.23
2018-04-28T23:47:26.653Z,37.73
2018-04-28T23:49:54.237Z,29.87
2018-04-28T23:52:22.613Z,29.17
2018-04-28T23:54:50.164Z,30.60
2018-04-28T23:57:17.793Z,27.37
2018-04-28T23:59:45.696Z,27.43
